createdAt,value
2017-11-21T00:00:50.688Z,0
2017-11-21T00:01:50.688Z,0
2017-11-21T00:02:50.666Z,0
2017-11-21T00:03:50.931Z,0
2017-11-21T00:04:50.896Z,0
2017-11-21T00:05:50.732Z,0
2017-11-21T00:06:50.622Z,0
2017-11-21T00:07:50.875Z,0
2017-11-21T00:08:50.867Z,0
2017-11-21T00:09:50.596Z,0
2017-11-21T00:10:50.429Z,0
2017-11-21T00:11:50.577Z,0
2017-11-21T00:12:50.817Z,0
2017-11-21T00:13:50.308Z,0
2017-11-21T00:14:50.557Z,0
2017-11-21T00:15:50.538Z,0
2017-11-21T00:16:50.795Z,0
2017-11-21T00:17:50.513Z,0
2017-11-21T00:18:50.503Z,0
2017-11-21T00:19:50.237Z,0
2017-11-21T00:20:50.481Z,0
2017-11-21T00:21:50.478Z,0
2017-11-21T00:22:50.723Z,0
2017-11-21T00:23:50.446Z,0
2017-11-21T00:24:50.443Z,0
2017-11-21T00:25:50.690Z,0
2017-11-21T00:26:50.308Z,0
2017-11-21T00:27:50.405Z,0
2017-11-21T00:28:50.142Z,0
2017-11-21T00:29:50.139Z,0
2017-11-21T00:30:50.655Z,0
2017-11-21T00:31:50.503Z,0
2017-11-21T00:32:50.725Z,0
2017-11-21T00:33:50.191Z,0
2017-11-21T00:34:50.372Z,0
2017-11-21T00:35:50.329Z,0
2017-11-21T00:36:50.311Z,0
2017-11-21T00:37:50.670Z,0
2017-11-21T00:38:50.294Z,0
2017-11-21T00:39:50.294Z,0
2017-11-21T00:40:50.526Z,0
2017-11-21T00:41:50.538Z,0
2017-11-21T00:42:49.746Z,0
2017-11-21T00:43:50.241Z,0
2017-11-21T00:44:50.232Z,0
2017-11-21T00:45:49.966Z,0
2017-11-21T00:46:50.057Z,0
2017-11-21T00:47:50.566Z,0
2017-11-21T00:48:50.192Z,0
2017-11-21T00:49:50.436Z,0
2017-11-21T00:50:49.912Z,0
2017-11-21T00:51:50.169Z,0
2017-11-21T00:52:50.154Z,0
2017-11-21T00:53:50.407Z,0
2017-11-21T00:54:50.480Z,0
2017-11-21T00:55:49.869Z,0
2017-11-21T00:56:50.371Z,0
2017-11-21T00:57:50.103Z,0
2017-11-21T00:58:50.095Z,0
2017-11-21T00:59:50.429Z,0
2017-11-21T01:00:50.069Z,0
2017-11-21T01:01:50.055Z,0
2017-11-21T01:02:50.066Z,0
2017-11-21T01:03:50.063Z,0
2017-11-21T01:04:50.034Z,0
2017-11-21T01:05:50.292Z,0
2017-11-21T01:06:50.264Z,0
2017-11-21T01:07:50.261Z,0
2017-11-21T01:08:49.828Z,0
2017-11-21T01:09:50.235Z,0
2017-11-21T01:10:49.963Z,0
2017-11-21T01:11:49.699Z,0
2017-11-21T01:12:50.199Z,0
2017-11-21T01:13:50.193Z,0
2017-11-21T01:14:49.923Z,0
2017-11-21T01:15:50.170Z,0
2017-11-21T01:16:49.902Z,0
2017-11-21T01:17:50.148Z,0
2017-11-21T01:18:49.987Z,0
2017-11-21T01:19:49.625Z,0
2017-11-21T01:20:49.703Z,0
2017-11-21T01:21:49.962Z,0
2017-11-21T01:22:49.854Z,0
2017-11-21T01:23:49.846Z,0
2017-11-21T01:24:50.079Z,0
2017-11-21T01:25:49.805Z,0
2017-11-21T01:26:49.542Z,0
2017-11-21T01:27:50.047Z,0
2017-11-21T01:28:49.785Z,0
2017-11-21T01:29:49.778Z,0
2017-11-21T01:30:50.011Z,0
2017-11-21T01:31:50.005Z,0
2017-11-21T01:32:50.005Z,0
2017-11-21T01:33:49.733Z,0
2017-11-21T01:34:49.979Z,0
2017-11-21T01:35:49.969Z,0
2017-11-21T01:36:49.695Z,0
2017-11-21T01:37:50.043Z,0
2017-11-21T01:38:49.694Z,0
2017-11-21T01:39:49.922Z,0
2017-11-21T01:40:49.916Z,0
2017-11-21T01:41:49.903Z,0
2017-11-21T01:42:49.648Z,0
2017-11-21T01:43:49.735Z,0
2017-11-21T01:44:49.360Z,0
2017-11-21T01:45:49.727Z,0
2017-11-21T01:46:49.867Z,0
2017-11-21T01:47:49.855Z,0
2017-11-21T01:48:49.836Z,0
2017-11-21T01:49:49.303Z,0
2017-11-21T01:50:49.813Z,0
2017-11-21T01:51:49.286Z,0
2017-11-21T01:52:49.796Z,0
2017-11-21T01:53:49.525Z,0
2017-11-21T01:54:49.519Z,0
2017-11-21T01:55:49.859Z,0
2017-11-21T01:56:49.494Z,0
2017-11-21T01:57:49.225Z,0
2017-11-21T01:58:49.567Z,0
2017-11-21T01:59:49.202Z,0
2017-11-21T02:00:49.716Z,0
2017-11-21T02:01:49.286Z,0
2017-11-21T02:02:49.434Z,0
2017-11-21T02:03:49.668Z,0
2017-11-21T02:04:49.660Z,0
2017-11-21T02:05:48.983Z,0
2017-11-21T02:06:49.387Z,0
2017-11-21T02:07:49.382Z,0
2017-11-21T02:08:49.371Z,0
2017-11-21T02:09:49.457Z,0
2017-11-21T02:10:49.714Z,0
2017-11-21T02:11:49.331Z,0
2017-11-21T02:12:49.064Z,0
2017-11-21T02:13:49.568Z,0
2017-11-21T02:14:48.791Z,0
2017-11-21T02:15:49.555Z,0
2017-11-21T02:16:49.027Z,0
2017-11-21T02:17:49.376Z,0
2017-11-21T02:18:49.260Z,0
2017-11-21T02:19:49.251Z,0
2017-11-21T02:20:48.979Z,0
2017-11-21T02:21:49.232Z,0
2017-11-21T02:22:48.972Z,0
2017-11-21T02:23:49.208Z,0
2017-11-21T02:24:49.467Z,0
2017-11-21T02:25:49.454Z,0
2017-11-21T02:26:49.442Z,0
2017-11-21T02:27:49.429Z,0
2017-11-21T02:28:49.424Z,0
2017-11-21T02:29:48.893Z,0
2017-11-21T02:30:49.401Z,0
2017-11-21T02:31:48.871Z,0
2017-11-21T02:32:49.126Z,0
2017-11-21T02:33:49.122Z,0
2017-11-21T02:34:49.098Z,0
2017-11-21T02:35:49.353Z,0
2017-11-21T02:36:49.333Z,0
2017-11-21T02:37:49.069Z,0
2017-11-21T02:38:49.338Z,0
2017-11-21T02:39:49.299Z,0
2017-11-21T02:40:49.424Z,0
2017-11-21T02:41:49.043Z,0
2017-11-21T02:42:48.757Z,0
2017-11-21T02:43:49.018Z,0
2017-11-21T02:44:48.734Z,0
2017-11-21T02:45:49.237Z,0
2017-11-21T02:46:49.278Z,0
2017-11-21T02:47:48.970Z,0
2017-11-21T02:48:49.218Z,0
2017-11-21T02:49:49.208Z,0
2017-11-21T02:50:49.186Z,0
2017-11-21T02:51:49.173Z,0
2017-11-21T02:52:49.211Z,0
2017-11-21T02:53:48.902Z,0
2017-11-21T02:54:49.161Z,0
2017-11-21T02:55:48.881Z,0
2017-11-21T02:56:49.243Z,0
2017-11-21T02:57:48.888Z,0
2017-11-21T02:58:48.843Z,0
2017-11-21T02:59:49.100Z,0
2017-11-21T03:00:49.090Z,0
2017-11-21T03:01:49.085Z,0
2017-11-21T03:02:48.552Z,0
2017-11-21T03:03:49.047Z,0
2017-11-21T03:04:48.526Z,0
2017-11-21T03:05:48.771Z,0
2017-11-21T03:06:48.768Z,0
2017-11-21T03:07:48.767Z,0
2017-11-21T03:08:49.003Z,0
2017-11-21T03:09:48.734Z,0
2017-11-21T03:10:48.728Z,0
2017-11-21T03:11:48.457Z,0
2017-11-21T03:12:48.968Z,0
2017-11-21T03:13:48.802Z,0
2017-11-21T03:14:48.684Z,0
2017-11-21T03:15:48.925Z,0
2017-11-21T03:16:48.662Z,0
2017-11-21T03:17:48.905Z,0
2017-11-21T03:18:48.642Z,0
2017-11-21T03:19:48.632Z,0
2017-11-21T03:20:48.902Z,0
2017-11-21T03:21:48.356Z,0
2017-11-21T03:22:48.616Z,0
2017-11-21T03:23:48.332Z,0
2017-11-21T03:24:48.852Z,0
2017-11-21T03:25:48.924Z,0
2017-11-21T03:26:48.814Z,0
2017-11-21T03:27:48.291Z,0
2017-11-21T03:28:48.800Z,0
2017-11-21T03:29:48.787Z,0
2017-11-21T03:30:48.790Z,0
2017-11-21T03:31:48.511Z,0
2017-11-21T03:32:48.536Z,0
2017-11-21T03:33:48.754Z,0
2017-11-21T03:34:48.744Z,0
2017-11-21T03:35:48.472Z,0
2017-11-21T03:36:48.552Z,0
2017-11-21T03:37:48.190Z,0
2017-11-21T03:38:48.436Z,0
2017-11-21T03:39:48.681Z,0
2017-11-21T03:40:48.429Z,0
2017-11-21T03:41:48.670Z,0
2017-11-21T03:42:48.400Z,0
2017-11-21T03:43:48.642Z,0
2017-11-21T03:44:48.378Z,0
2017-11-21T03:45:48.117Z,0
2017-11-21T03:46:48.352Z,0
2017-11-21T03:47:48.612Z,0
2017-11-21T03:48:48.599Z,0
2017-11-21T03:49:48.067Z,0
2017-11-21T03:50:48.420Z,0
2017-11-21T03:51:48.306Z,0
2017-11-21T03:52:48.548Z,0
2017-11-21T03:53:48.546Z,0
2017-11-21T03:54:48.283Z,0
2017-11-21T03:55:48.368Z,0
2017-11-21T03:56:48.515Z,0
2017-11-21T03:57:48.241Z,0
2017-11-21T03:58:48.601Z,0
2017-11-21T03:59:48.218Z,0
2017-11-21T04:00:48.477Z,0
2017-11-21T04:01:48.307Z,0
2017-11-21T04:02:48.203Z,0
2017-11-21T04:03:48.173Z,0
2017-11-21T04:04:48.426Z,0
2017-11-21T04:05:48.413Z,0
2017-11-21T04:06:48.151Z,0
2017-11-21T04:07:48.394Z,0
2017-11-21T04:08:48.381Z,0
2017-11-21T04:09:47.865Z,0
2017-11-21T04:10:48.101Z,0
2017-11-21T04:11:48.104Z,0
2017-11-21T04:12:48.448Z,0
2017-11-21T04:13:47.562Z,0
2017-11-21T04:14:48.420Z,0
2017-11-21T04:15:48.054Z,0
2017-11-21T04:16:48.308Z,0
2017-11-21T04:17:48.069Z,0
2017-11-21T04:18:48.235Z,0
2017-11-21T04:19:48.012Z,0
2017-11-21T04:20:48.359Z,0
2017-11-21T04:21:48.353Z,0
2017-11-21T04:22:48.245Z,0
2017-11-21T04:23:47.982Z,0
2017-11-21T04:24:48.219Z,0
2017-11-21T04:25:47.950Z,0
2017-11-21T04:26:48.146Z,0
2017-11-21T04:27:48.190Z,0
2017-11-21T04:28:48.184Z,0
2017-11-21T04:29:47.916Z,0
2017-11-21T04:30:47.902Z,0
2017-11-21T04:31:48.154Z,0
2017-11-21T04:32:48.136Z,0
2017-11-21T04:33:47.971Z,0
2017-11-21T04:34:47.601Z,0
2017-11-21T04:35:47.851Z,0
2017-11-21T04:36:47.597Z,0
2017-11-21T04:37:47.580Z,0
2017-11-21T04:38:47.920Z,0
2017-11-21T04:39:47.811Z,0
2017-11-21T04:40:48.160Z,0
2017-11-21T04:41:47.791Z,0
2017-11-21T04:42:47.520Z,0
2017-11-21T04:43:48.124Z,0
2017-11-21T04:44:48.013Z,0
2017-11-21T04:45:47.843Z,0
2017-11-21T04:46:47.995Z,0
2017-11-21T04:47:47.730Z,0
2017-11-21T04:48:47.717Z,0
2017-11-21T04:49:47.962Z,0
2017-11-21T04:50:47.793Z,0
2017-11-21T04:51:47.939Z,0
2017-11-21T04:52:47.675Z,0
2017-11-21T04:53:47.411Z,0
2017-11-21T04:54:47.913Z,0
2017-11-21T04:55:47.642Z,0
2017-11-21T04:56:47.378Z,0
2017-11-21T04:57:47.483Z,0
2017-11-21T04:58:47.872Z,0
2017-11-21T04:59:47.870Z,0
2017-11-21T05:00:47.594Z,0
2017-11-21T05:01:47.855Z,0
2017-11-21T05:02:47.833Z,0
2017-11-21T05:03:47.815Z,0
2017-11-21T05:04:47.814Z,0
2017-11-21T05:05:47.800Z,0
2017-11-21T05:06:47.783Z,0
2017-11-21T05:07:47.807Z,0
2017-11-21T05:08:47.776Z,0
2017-11-21T05:09:47.504Z,0
2017-11-21T05:10:47.487Z,0
2017-11-21T05:11:47.844Z,0
2017-11-21T05:12:46.954Z,0
2017-11-21T05:13:47.814Z,0
2017-11-21T05:14:47.455Z,0
2017-11-21T05:15:47.448Z,0
2017-11-21T05:16:47.426Z,0
2017-11-21T05:17:47.675Z,0
2017-11-21T05:18:47.404Z,0
2017-11-21T05:19:47.431Z,0
2017-11-21T05:20:47.401Z,0
2017-11-21T05:21:47.407Z,0
2017-11-21T05:22:47.109Z,0
2017-11-21T05:23:47.616Z,0
2017-11-21T05:24:47.606Z,0
2017-11-21T05:25:47.604Z,0
2017-11-21T05:26:47.320Z,0
2017-11-21T05:27:47.591Z,0
2017-11-21T05:28:47.048Z,0
2017-11-21T05:29:47.570Z,0
2017-11-21T05:30:47.386Z,0
2017-11-21T05:31:47.374Z,0
2017-11-21T05:32:47.264Z,0
2017-11-21T05:33:47.006Z,0
2017-11-21T05:34:46.996Z,0
2017-11-21T05:35:47.237Z,0
2017-11-21T05:36:47.482Z,0
2017-11-21T05:37:47.208Z,0
2017-11-21T05:38:46.947Z,0
2017-11-21T05:39:47.196Z,0
2017-11-21T05:40:47.181Z,0
2017-11-21T05:41:47.171Z,0
2017-11-21T05:42:47.418Z,0
2017-11-21T05:43:47.414Z,0
2017-11-21T05:44:47.140Z,0
2017-11-21T05:45:47.391Z,0
2017-11-21T05:46:47.124Z,0
2017-11-21T05:47:47.372Z,0
2017-11-21T05:48:47.198Z,0
2017-11-21T05:49:47.085Z,0
2017-11-21T05:50:47.342Z,0
2017-11-21T05:51:47.068Z,0
2017-11-21T05:52:47.330Z,0
2017-11-21T05:53:47.052Z,0
2017-11-21T05:54:47.042Z,0
2017-11-21T05:55:47.398Z,0
2017-11-21T05:56:46.762Z,0
2017-11-21T05:57:46.751Z,0
2017-11-21T05:58:47.001Z,0
2017-11-21T05:59:46.986Z,0
2017-11-21T06:00:47.080Z,0
2017-11-21T06:01:47.227Z,0
2017-11-21T06:02:46.709Z,0
2017-11-21T06:03:47.207Z,0
2017-11-21T06:04:47.191Z,0
2017-11-21T06:05:46.926Z,0
2017-11-21T06:06:47.182Z,0
2017-11-21T06:07:46.904Z,0
2017-11-21T06:08:46.642Z,0
2017-11-21T06:09:47.145Z,0
2017-11-21T06:10:46.996Z,0
2017-11-21T06:11:46.353Z,0
2017-11-21T06:12:46.863Z,0
2017-11-21T06:13:47.109Z,0
2017-11-21T06:14:46.834Z,0
2017-11-21T06:15:46.566Z,0
2017-11-21T06:16:47.088Z,4
2017-11-21T06:17:47.084Z,4
2017-11-21T06:18:47.055Z,0
2017-11-21T06:19:46.785Z,0
2017-11-21T06:20:46.884Z,4
2017-11-21T06:21:46.771Z,4
2017-11-21T06:22:47.019Z,4
2017-11-21T06:23:46.761Z,4
2017-11-21T06:24:46.740Z,4
2017-11-21T06:25:46.466Z,4
2017-11-21T06:26:46.725Z,4
2017-11-21T06:27:46.971Z,8
2017-11-21T06:28:46.708Z,4
2017-11-21T06:29:46.944Z,8
2017-11-21T06:30:46.685Z,8
2017-11-21T06:31:46.506Z,8
2017-11-21T06:32:46.662Z,8
2017-11-21T06:33:46.389Z,12
2017-11-21T06:34:46.918Z,8
2017-11-21T06:35:46.630Z,12
2017-11-21T06:36:46.366Z,12
2017-11-21T06:37:46.188Z,20
2017-11-21T06:38:46.339Z,20
2017-11-21T06:39:46.583Z,20
2017-11-21T06:40:46.569Z,24
2017-11-21T06:41:46.571Z,28
2017-11-21T06:42:46.556Z,28
2017-11-21T06:43:46.545Z,32
2017-11-21T06:44:46.640Z,32
2017-11-21T06:45:46.523Z,40
2017-11-21T06:46:46.259Z,44
2017-11-21T06:47:46.769Z,48
2017-11-21T06:48:46.743Z,52
2017-11-21T06:49:46.598Z,56
2017-11-21T06:50:45.963Z,64
2017-11-21T06:51:46.721Z,68
2017-11-21T06:52:46.457Z,68
2017-11-21T06:53:46.180Z,72
2017-11-21T06:54:46.429Z,76
2017-11-21T06:55:46.524Z,80
2017-11-21T06:56:46.424Z,80
2017-11-21T06:57:46.409Z,84
2017-11-21T06:58:46.643Z,88
2017-11-21T06:59:46.641Z,92
2017-11-21T07:00:46.632Z,96
2017-11-21T07:01:46.616Z,104
2017-11-21T07:02:46.350Z,108
2017-11-21T07:03:46.596Z,112
2017-11-21T07:04:46.071Z,120
2017-11-21T07:05:46.314Z,120
2017-11-21T07:06:46.563Z,124
2017-11-21T07:07:46.569Z,128
2017-11-21T07:08:46.294Z,136
2017-11-21T07:09:46.033Z,140
2017-11-21T07:10:46.010Z,144
2017-11-21T07:11:46.279Z,144
2017-11-21T07:12:46.001Z,152
2017-11-21T07:13:46.245Z,156
2017-11-21T07:14:45.983Z,156
2017-11-21T07:15:45.963Z,164
2017-11-21T07:16:46.467Z,164
2017-11-21T07:17:46.198Z,164
2017-11-21T07:18:46.037Z,164
2017-11-21T07:19:46.439Z,160
2017-11-21T07:20:45.914Z,164
2017-11-21T07:21:45.651Z,164
2017-11-21T07:22:46.398Z,168
2017-11-21T07:23:46.403Z,176
2017-11-21T07:24:45.873Z,180
2017-11-21T07:25:45.861Z,172
2017-11-21T07:26:46.107Z,168
2017-11-21T07:27:46.352Z,180
2017-11-21T07:28:46.349Z,192
2017-11-21T07:29:46.340Z,192
2017-11-21T07:30:46.066Z,188
2017-11-21T07:31:46.341Z,188
2017-11-21T07:32:46.041Z,184
2017-11-21T07:33:46.395Z,188
2017-11-21T07:34:46.035Z,188
2017-11-21T07:35:45.762Z,196
2017-11-21T07:36:46.007Z,212
2017-11-21T07:37:45.997Z,228
2017-11-21T07:38:45.730Z,240
2017-11-21T07:39:46.238Z,248
2017-11-21T07:40:46.236Z,248
2017-11-21T07:41:45.953Z,252
2017-11-21T07:42:45.962Z,256
2017-11-21T07:43:45.958Z,248
2017-11-21T07:44:46.189Z,252
2017-11-21T07:45:46.172Z,256
2017-11-21T07:46:46.198Z,252
2017-11-21T07:47:45.840Z,244
2017-11-21T07:48:45.895Z,240
2017-11-21T07:49:45.875Z,228
2017-11-21T07:50:45.867Z,232
2017-11-21T07:51:46.151Z,236
2017-11-21T07:52:46.102Z,236
2017-11-21T07:53:45.941Z,228
2017-11-21T07:54:45.827Z,224
2017-11-21T07:55:45.916Z,220
2017-11-21T07:56:46.071Z,216
2017-11-21T07:57:45.828Z,216
2017-11-21T07:58:45.800Z,224
2017-11-21T07:59:45.779Z,244
2017-11-21T08:00:45.511Z,276
2017-11-21T08:01:45.771Z,304
2017-11-21T08:02:46.027Z,316
2017-11-21T08:03:45.744Z,332
2017-11-21T08:04:45.990Z,376
2017-11-21T08:05:45.719Z,424
2017-11-21T08:06:45.964Z,444
2017-11-21T08:07:45.701Z,500
2017-11-21T08:08:45.175Z,548
2017-11-21T08:09:45.419Z,600
2017-11-21T08:10:45.926Z,684
2017-11-21T08:11:45.928Z,696
2017-11-21T08:12:45.656Z,632
2017-11-21T08:13:45.640Z,608
2017-11-21T08:14:45.889Z,552
2017-11-21T08:15:45.974Z,468
2017-11-21T08:16:45.705Z,424
2017-11-21T08:17:45.857Z,392
2017-11-21T08:18:45.844Z,368
2017-11-21T08:19:45.837Z,348
2017-11-21T08:20:45.824Z,324
2017-11-21T08:21:45.967Z,312
2017-11-21T08:22:45.559Z,308
2017-11-21T08:23:45.801Z,320
2017-11-21T08:24:45.785Z,336
2017-11-21T08:25:45.633Z,336
2017-11-21T08:26:45.771Z,348
2017-11-21T08:27:45.515Z,384
2017-11-21T08:28:45.747Z,424
2017-11-21T08:29:45.737Z,420
2017-11-21T08:30:45.465Z,380
2017-11-21T08:31:45.724Z,344
2017-11-21T08:32:45.288Z,352
2017-11-21T08:33:45.697Z,396
2017-11-21T08:34:45.690Z,444
2017-11-21T08:35:45.422Z,456
2017-11-21T08:36:45.427Z,476
2017-11-21T08:37:45.607Z,460
2017-11-21T08:38:45.709Z,396
2017-11-21T08:39:45.636Z,356
2017-11-21T08:40:45.371Z,340
2017-11-21T08:41:45.359Z,328
2017-11-21T08:42:45.456Z,336
2017-11-21T08:43:45.081Z,344
2017-11-21T08:44:45.073Z,356
2017-11-21T08:45:45.322Z,368
2017-11-21T08:46:45.669Z,388
2017-11-21T08:47:45.301Z,396
2017-11-21T08:48:45.296Z,408
2017-11-21T08:49:45.535Z,412
2017-11-21T08:50:45.635Z,412
2017-11-21T08:51:45.255Z,416
2017-11-21T08:52:45.520Z,436
2017-11-21T08:53:45.537Z,464
2017-11-21T08:54:45.244Z,504
2017-11-21T08:55:44.705Z,556
2017-11-21T08:56:44.956Z,620
2017-11-21T08:57:44.944Z,660
2017-11-21T08:58:45.204Z,684
2017-11-21T08:59:45.457Z,708
2017-11-21T09:00:45.434Z,752
2017-11-21T09:01:45.417Z,788
2017-11-21T09:02:44.896Z,788
2017-11-21T09:03:45.247Z,744
2017-11-21T09:04:45.494Z,712
2017-11-21T09:05:45.402Z,716
2017-11-21T09:06:45.783Z,736
2017-11-21T09:07:45.206Z,796
2017-11-21T09:08:45.464Z,900
2017-11-21T09:09:45.340Z,824
2017-11-21T09:10:45.074Z,796
2017-11-21T09:11:45.065Z,784
2017-11-21T09:12:44.796Z,780
2017-11-21T09:13:45.303Z,772
2017-11-21T09:14:45.297Z,740
2017-11-21T09:15:45.030Z,704
2017-11-21T09:16:45.270Z,680
2017-11-21T09:17:45.013Z,720
2017-11-21T09:18:45.351Z,780
2017-11-21T09:19:44.985Z,788
2017-11-21T09:20:44.973Z,832
2017-11-21T09:21:44.970Z,840
2017-11-21T09:22:44.695Z,764
2017-11-21T09:23:44.787Z,716
2017-11-21T09:24:44.677Z,692
2017-11-21T09:25:44.926Z,656
2017-11-21T09:26:45.174Z,640
2017-11-21T09:27:45.163Z,648
2017-11-21T09:28:44.896Z,688
2017-11-21T09:29:44.891Z,732
2017-11-21T09:30:44.875Z,700
2017-11-21T09:31:44.610Z,596
2017-11-21T09:32:45.136Z,484
2017-11-21T09:33:44.857Z,404
2017-11-21T09:34:45.111Z,364
2017-11-21T09:35:45.085Z,352
2017-11-21T09:36:45.092Z,356
2017-11-21T09:37:45.073Z,356
2017-11-21T09:38:44.818Z,368
2017-11-21T09:39:44.819Z,392
2017-11-21T09:40:45.054Z,416
2017-11-21T09:41:44.791Z,440
2017-11-21T09:42:45.142Z,476
2017-11-21T09:43:45.017Z,492
2017-11-21T09:44:45.014Z,552
2017-11-21T09:45:45.126Z,668
2017-11-21T09:46:44.734Z,656
2017-11-21T09:47:44.722Z,588
2017-11-21T09:48:44.454Z,556
2017-11-21T09:49:44.965Z,532
2017-11-21T09:50:44.690Z,512
2017-11-21T09:51:44.687Z,476
2017-11-21T09:52:44.671Z,496
2017-11-21T09:53:45.025Z,532
2017-11-21T09:54:45.113Z,556
2017-11-21T09:55:44.127Z,556
2017-11-21T09:56:44.894Z,512
2017-11-21T09:57:44.638Z,456
2017-11-21T09:58:44.616Z,404
2017-11-21T09:59:44.625Z,368
2017-11-21T10:00:44.353Z,376
2017-11-21T10:01:44.428Z,388
2017-11-21T10:02:44.319Z,404
2017-11-21T10:03:44.303Z,412
2017-11-21T10:04:44.831Z,428
2017-11-21T10:05:44.746Z,488
2017-11-21T10:06:44.795Z,516
2017-11-21T10:07:44.567Z,564
2017-11-21T10:08:44.525Z,620
2017-11-21T10:09:44.765Z,672
2017-11-21T10:10:44.504Z,744
2017-11-21T10:11:44.486Z,812
2017-11-21T10:12:44.736Z,836
2017-11-21T10:13:44.472Z,840
2017-11-21T10:14:44.206Z,864
2017-11-21T10:15:44.801Z,852
2017-11-21T10:16:44.700Z,792
2017-11-21T10:17:43.914Z,788
2017-11-21T10:18:44.688Z,816
2017-11-21T10:19:44.428Z,780
2017-11-21T10:20:44.393Z,708
2017-11-21T10:21:44.388Z,688
2017-11-21T10:22:44.639Z,628
2017-11-21T10:23:44.372Z,572
2017-11-21T10:24:44.626Z,552
2017-11-21T10:25:44.618Z,516
2017-11-21T10:26:44.338Z,468
2017-11-21T10:27:44.072Z,444
2017-11-21T10:28:44.074Z,396
2017-11-21T10:29:44.318Z,400
2017-11-21T10:30:43.788Z,388
2017-11-21T10:31:44.547Z,352
2017-11-21T10:32:44.567Z,336
2017-11-21T10:33:44.271Z,344
2017-11-21T10:34:44.263Z,384
2017-11-21T10:35:44.267Z,388
2017-11-21T10:36:44.500Z,416
2017-11-21T10:37:43.971Z,432
2017-11-21T10:38:44.223Z,428
2017-11-21T10:39:44.475Z,464
2017-11-21T10:40:44.460Z,500
2017-11-21T10:41:43.942Z,488
2017-11-21T10:42:44.451Z,472
2017-11-21T10:43:44.431Z,452
2017-11-21T10:44:44.426Z,520
2017-11-21T10:45:43.903Z,572
2017-11-21T10:46:44.147Z,560
2017-11-21T10:47:44.493Z,576
2017-11-21T10:48:44.123Z,592
2017-11-21T10:49:44.116Z,592
2017-11-21T10:50:44.128Z,584
2017-11-21T10:51:44.094Z,664
2017-11-21T10:52:44.458Z,728
2017-11-21T10:53:44.083Z,816
2017-11-21T10:54:43.820Z,896
2017-11-21T10:55:43.800Z,968
2017-11-21T10:56:44.073Z,976
2017-11-21T10:57:44.037Z,1028
2017-11-21T10:58:44.291Z,1020
2017-11-21T10:59:44.017Z,944
2017-11-21T11:00:44.267Z,876
2017-11-21T11:01:44.004Z,752
2017-11-21T11:02:43.994Z,632
2017-11-21T11:03:43.980Z,596
2017-11-21T11:04:43.976Z,668
2017-11-21T11:05:43.968Z,664
2017-11-21T11:06:44.207Z,528
2017-11-21T11:07:44.195Z,480
2017-11-21T11:08:43.416Z,456
2017-11-21T11:09:44.212Z,384
2017-11-21T11:10:43.395Z,392
2017-11-21T11:11:43.644Z,436
2017-11-21T11:12:44.202Z,488
2017-11-21T11:13:43.627Z,500
2017-11-21T11:14:44.152Z,484
2017-11-21T11:15:44.138Z,528
2017-11-21T11:16:44.222Z,540
2017-11-21T11:17:43.591Z,552
2017-11-21T11:18:43.836Z,520
2017-11-21T11:19:43.571Z,460
2017-11-21T11:20:44.189Z,408
2017-11-21T11:21:43.290Z,416
2017-11-21T11:22:43.540Z,488
2017-11-21T11:23:43.791Z,580
2017-11-21T11:24:44.039Z,644
2017-11-21T11:25:43.609Z,656
2017-11-21T11:26:43.605Z,596
2017-11-21T11:27:43.748Z,556
2017-11-21T11:28:43.492Z,544
2017-11-21T11:29:43.990Z,564
2017-11-21T11:30:43.923Z,632
2017-11-21T11:31:43.969Z,644
2017-11-21T11:32:43.703Z,668
2017-11-21T11:33:43.698Z,688
2017-11-21T11:34:43.944Z,724
2017-11-21T11:35:43.665Z,740
2017-11-21T11:36:43.920Z,740
2017-11-21T11:37:43.909Z,764
2017-11-21T11:38:43.642Z,820
2017-11-21T11:39:43.627Z,824
2017-11-21T11:40:43.620Z,848
2017-11-21T11:41:43.358Z,936
2017-11-21T11:42:43.340Z,1016
2017-11-21T11:43:43.887Z,1096
2017-11-21T11:44:43.586Z,1112
2017-11-21T11:45:43.570Z,1172
2017-11-21T11:46:43.820Z,1228
2017-11-21T11:47:43.551Z,1252
2017-11-21T11:48:43.806Z,1116
2017-11-21T11:49:43.537Z,992
2017-11-21T11:50:43.367Z,1016
2017-11-21T11:51:43.523Z,1088
2017-11-21T11:52:43.773Z,1040
2017-11-21T11:53:43.497Z,952
2017-11-21T11:54:43.486Z,960
2017-11-21T11:55:42.961Z,1064
2017-11-21T11:56:43.724Z,1076
2017-11-21T11:57:43.719Z,1064
2017-11-21T11:58:43.706Z,984
2017-11-21T11:59:43.702Z,940
2017-11-21T12:00:43.427Z,936
2017-11-21T12:01:43.427Z,992
2017-11-21T12:02:43.415Z,1032
2017-11-21T12:03:43.146Z,1000
2017-11-21T12:04:43.693Z,980
2017-11-21T12:05:43.384Z,1040
2017-11-21T12:06:43.635Z,1088
2017-11-21T12:07:43.632Z,1152
2017-11-21T12:08:43.612Z,1112
2017-11-21T12:09:43.341Z,1064
2017-11-21T12:10:43.335Z,1100
2017-11-21T12:11:43.586Z,1136
2017-11-21T12:12:43.418Z,1048
2017-11-21T12:13:43.305Z,896
2017-11-21T12:14:43.045Z,800
2017-11-21T12:15:43.288Z,732
2017-11-21T12:16:43.677Z,720
2017-11-21T12:17:43.012Z,772
2017-11-21T12:18:43.516Z,772
2017-11-21T12:19:42.994Z,796
2017-11-21T12:20:42.983Z,828
2017-11-21T12:21:42.968Z,880
2017-11-21T12:22:43.477Z,880
2017-11-21T12:23:43.509Z,868
2017-11-21T12:24:43.465Z,848
2017-11-21T12:25:43.464Z,852
2017-11-21T12:26:43.019Z,876
2017-11-21T12:27:43.426Z,928
2017-11-21T12:28:43.443Z,980
2017-11-21T12:29:43.426Z,964
2017-11-21T12:30:43.416Z,1012
2017-11-21T12:31:43.138Z,1040
2017-11-21T12:32:43.128Z,1060
2017-11-21T12:33:43.378Z,1116
2017-11-21T12:34:43.387Z,1176
2017-11-21T12:35:43.360Z,1180
2017-11-21T12:36:43.084Z,1156
2017-11-21T12:37:42.817Z,1148
2017-11-21T12:38:43.071Z,1128
2017-11-21T12:39:43.060Z,1116
2017-11-21T12:40:43.307Z,1100
2017-11-21T12:41:43.306Z,1080
2017-11-21T12:42:43.035Z,1040
2017-11-21T12:43:42.869Z,1016
2017-11-21T12:44:42.764Z,972
2017-11-21T12:45:42.491Z,948
2017-11-21T12:46:43.259Z,908
2017-11-21T12:47:42.470Z,800
2017-11-21T12:48:42.987Z,720
2017-11-21T12:49:42.980Z,676
2017-11-21T12:50:43.317Z,708
2017-11-21T12:51:42.973Z,792
2017-11-21T12:52:42.939Z,804
2017-11-21T12:53:42.415Z,892
2017-11-21T12:54:43.173Z,996
2017-11-21T12:55:42.927Z,956
2017-11-21T12:56:43.172Z,924
2017-11-21T12:57:42.888Z,952
2017-11-21T12:58:43.141Z,888
2017-11-21T12:59:42.871Z,872
2017-11-21T13:00:42.861Z,804
2017-11-21T13:01:42.856Z,728
2017-11-21T13:02:42.849Z,720
2017-11-21T13:03:42.672Z,728
2017-11-21T13:04:42.831Z,736
2017-11-21T13:05:42.558Z,752
2017-11-21T13:06:42.807Z,760
2017-11-21T13:07:43.055Z,808
2017-11-21T13:08:42.790Z,848
2017-11-21T13:09:43.038Z,928
2017-11-21T13:10:42.777Z,1132
2017-11-21T13:11:43.023Z,1196
2017-11-21T13:12:43.010Z,1256
2017-11-21T13:13:42.750Z,1216
2017-11-21T13:14:42.828Z,1284
2017-11-21T13:15:42.205Z,1272
2017-11-21T13:16:43.086Z,1280
2017-11-21T13:17:42.710Z,1264
2017-11-21T13:18:42.695Z,1232
2017-11-21T13:19:42.944Z,1240
2017-11-21T13:20:42.938Z,1280
2017-11-21T13:21:42.665Z,1228
2017-11-21T13:22:43.015Z,1180
2017-11-21T13:23:42.385Z,1192
2017-11-21T13:24:42.894Z,1236
2017-11-21T13:25:42.373Z,1304
2017-11-21T13:26:42.886Z,1312
2017-11-21T13:27:42.884Z,1180
2017-11-21T13:28:42.598Z,1156
2017-11-21T13:29:42.852Z,1124
2017-11-21T13:30:42.585Z,1040
2017-11-21T13:31:42.578Z,972
2017-11-21T13:32:42.562Z,972
2017-11-21T13:33:42.554Z,1004
2017-11-21T13:34:42.645Z,1024
2017-11-21T13:35:42.532Z,1052
2017-11-21T13:36:42.532Z,1100
2017-11-21T13:37:42.273Z,1108
2017-11-21T13:38:42.268Z,1104
2017-11-21T13:39:42.240Z,1116
2017-11-21T13:40:42.332Z,1116
2017-11-21T13:41:42.480Z,1124
2017-11-21T13:42:42.476Z,1124
2017-11-21T13:43:42.722Z,1152
2017-11-21T13:44:42.456Z,1160
2017-11-21T13:45:42.697Z,1160
2017-11-21T13:46:42.175Z,1216
2017-11-21T13:47:42.169Z,1224
2017-11-21T13:48:42.516Z,1208
2017-11-21T13:49:42.674Z,1180
2017-11-21T13:50:42.136Z,1136
2017-11-21T13:51:42.131Z,1144
2017-11-21T13:52:42.377Z,1124
2017-11-21T13:53:42.632Z,1076
2017-11-21T13:54:42.620Z,1084
2017-11-21T13:55:42.346Z,1084
2017-11-21T13:56:42.089Z,1092
2017-11-21T13:57:42.716Z,1104
2017-11-21T13:58:42.581Z,1136
2017-11-21T13:59:42.321Z,1160
2017-11-21T14:00:42.569Z,1176
2017-11-21T14:01:42.569Z,1196
2017-11-21T14:02:42.026Z,1196
2017-11-21T14:03:42.276Z,1172
2017-11-21T14:04:42.008Z,1168
2017-11-21T14:05:42.286Z,1184
2017-11-21T14:06:42.511Z,1196
2017-11-21T14:07:42.523Z,1232
2017-11-21T14:08:42.487Z,1248
2017-11-21T14:09:42.229Z,1260
2017-11-21T14:10:42.217Z,1276